Webcam Richtung Westen

Webcam27

Webcam Richtung Norden

Webcam36

Webcam Richtung Osten

Webcam09

Wetter(Würzburg):
220530Z AUTO 20002G03KT 1900 BR ////// M09/M10 Q1015
		
Tue 22.01.2019, 05:30 UTC

Sichtweite bis zu 1900 m
feuchter Dunst
Wind aus 200° mit 02kt, in Böen bis zu 03kt

Temperatur: -9 °C
Taupunkt: -10 °C
QNH: 1015 hPa
                         Heute        Morgen
                         22.01        23.01
--------------------------------------------
Beginn der Dämmerung     06:30        06:29
Sonnenaufgang            07:06        07:05
Sonnenuntergang          15:57        15:58
Ende der Dämmerung       16:33        16:34

Alle Zeiten in UTC